sensor_id;sensor_type;location;lat;lon;timestamp;temperature;humidity
39095;DHT22;24840;47.508;19.376;2023-03-11T00:00:16;8.60;99.90
39095;DHT22;24840;47.508;19.376;2023-03-11T00:02:44;8.50;99.90
39095;DHT22;24840;47.508;19.376;2023-03-11T00:05:19;8.40;99.90
39095;DHT22;24840;47.508;19.376;2023-03-11T00:07:45;8.40;99.90
39095;DHT22;24840;47.508;19.376;2023-03-11T00:10:14;8.30;99.90
39095;DHT22;24840;47.508;19.376;2023-03-11T00:12:40;8.20;99.90
39095;DHT22;24840;47.508;19.376;2023-03-11T00:15:06;8.20;99.90
39095;DHT22;24840;47.508;19.376;2023-03-11T00:17:32;8.10;99.90
39095;DHT22;24840;47.508;19.376;2023-03-11T00:19:58;8.10;99.90
39095;DHT22;24840;47.508;19.376;2023-03-11T00:22:23;8.00;99.90
39095;DHT22;24840;47.508;19.376;2023-03-11T00:24:49;7.90;99.90
39095;DHT22;24840;47.508;19.376;2023-03-11T00:27:15;7.90;99.90
39095;DHT22;24840;47.508;19.376;2023-03-11T00:29:41;7.90;99.90
39095;DHT22;24840;47.508;19.376;2023-03-11T00:32:06;7.90;99.90
39095;DHT22;24840;47.508;19.376;2023-03-11T00:34:32;8.00;99.90
39095;DHT22;24840;47.508;19.376;2023-03-11T00:36:58;8.00;99.90
39095;DHT22;24840;47.508;19.376;2023-03-11T00:39:24;7.90;99.90
39095;DHT22;24840;47.508;19.376;2023-03-11T00:41:49;8.00;99.90
39095;DHT22;24840;47.508;19.376;2023-03-11T00:44:16;8.00;99.90
39095;DHT22;24840;47.508;19.376;2023-03-11T00:46:42;7.90;99.90
39095;DHT22;24840;47.508;19.376;2023-03-11T00:49:07;7.90;99.90
39095;DHT22;24840;47.508;19.376;2023-03-11T00:51:33;7.90;99.90
39095;DHT22;24840;47.508;19.376;2023-03-11T00:53:59;7.90;99.90
39095;DHT22;24840;47.508;19.376;2023-03-11T00:56:25;7.90;99.90
39095;DHT22;24840;47.508;19.376;2023-03-11T00:58:51;7.80;99.90
39095;DHT22;24840;47.508;19.376;2023-03-11T01:01:18;7.70;99.90
39095;DHT22;24840;47.508;19.376;2023-03-11T01:03:45;7.70;99.90
39095;DHT22;24840;47.508;19.376;2023-03-11T01:06:11;7.70;99.90
39095;DHT22;24840;47.508;19.376;2023-03-11T01:08:37;7.80;99.90
39095;DHT22;24840;47.508;19.376;2023-03-11T01:11:04;7.70;99.90
39095;DHT22;24840;47.508;19.376;2023-03-11T01:13:30;7.70;99.90
39095;DHT22;24840;47.508;19.376;2023-03-11T01:15:56;7.70;99.90
39095;DHT22;24840;47.508;19.376;2023-03-11T01:18:22;7.80;99.90
39095;DHT22;24840;47.508;19.376;2023-03-11T01:20:48;7.70;99.90
39095;DHT22;24840;47.508;19.376;2023-03-11T01:23:17;7.70;99.90
39095;DHT22;24840;47.508;19.376;2023-03-11T01:25:43;7.70;99.90
39095;DHT22;24840;47.508;19.376;2023-03-11T01:28:09;7.80;99.90
39095;DHT22;24840;47.508;19.376;2023-03-11T01:30:36;7.80;99.90
39095;DHT22;24840;47.508;19.376;2023-03-11T01:33:03;7.70;99.90
39095;DHT22;24840;47.508;19.376;2023-03-11T01:35:30;7.60;99.90
39095;DHT22;24840;47.508;19.376;2023-03-11T01:37:56;7.70;99.90
39095;DHT22;24840;47.508;19.376;2023-03-11T01:40:27;7.60;99.90
39095;DHT22;24840;47.508;19.376;2023-03-11T01:42:54;7.50;99.90
39095;DHT22;24840;47.508;19.376;2023-03-11T01:48:03;7.40;99.90
39095;DHT22;24840;47.508;19.376;2023-03-11T01:50:36;7.40;99.90
39095;DHT22;24840;47.508;19.376;2023-03-11T01:53:03;7.40;99.90
39095;DHT22;24840;47.508;19.376;2023-03-11T01:55:31;7.30;99.90
39095;DHT22;24840;47.508;19.376;2023-03-11T01:57:59;7.40;99.90
39095;DHT22;24840;47.508;19.376;2023-03-11T02:00:27;7.30;99.90
39095;DHT22;24840;47.508;19.376;2023-03-11T02:02:54;7.30;99.90
39095;DHT22;24840;47.508;19.376;2023-03-11T02:05:22;7.30;99.90
39095;DHT22;24840;47.508;19.376;2023-03-11T02:07:50;7.30;99.90
39095;DHT22;24840;47.508;19.376;2023-03-11T02:10:17;7.30;99.90
39095;DHT22;24840;47.508;19.376;2023-03-11T02:12:44;7.30;99.90
39095;DHT22;24840;47.508;19.376;2023-03-11T02:15:11;7.20;99.90
39095;DHT22;24840;47.508;19.376;2023-03-11T02:17:39;7.10;99.90
39095;DHT22;24840;47.508;19.376;2023-03-11T02:20:31;7.00;99.90
39095;DHT22;24840;47.508;19.376;2023-03-11T02:22:59;7.00;99.90
39095;DHT22;24840;47.508;19.376;2023-03-11T02:25:40;6.90;99.90
39095;DHT22;24840;47.508;19.376;2023-03-11T02:28:11;6.90;99.90
39095;DHT22;24840;47.508;19.376;2023-03-11T02:30:41;6.90;99.90
39095;DHT22;24840;47.508;19.376;2023-03-11T02:33:08;7.00;99.90
39095;DHT22;24840;47.508;19.376;2023-03-11T02:35:34;6.90;99.90
39095;DHT22;24840;47.508;19.376;2023-03-11T02:38:00;6.80;99.90
39095;DHT22;24840;47.508;19.376;2023-03-11T02:40:43;6.90;99.90
39095;DHT22;24840;47.508;19.376;2023-03-11T02:43:13;7.20;99.90
39095;DHT22;24840;47.508;19.376;2023-03-11T02:45:42;7.30;99.90
39095;DHT22;24840;47.508;19.376;2023-03-11T02:48:09;7.50;99.90
39095;DHT22;24840;47.508;19.376;2023-03-11T02:50:36;7.50;99.90
39095;DHT22;24840;47.508;19.376;2023-03-11T02:53:04;7.50;99.90
39095;DHT22;24840;47.508;19.376;2023-03-11T02:55:31;7.50;99.90
39095;DHT22;24840;47.508;19.376;2023-03-11T02:57:57;7.40;99.90
39095;DHT22;24840;47.508;19.376;2023-03-11T03:00:23;7.40;99.90
39095;DHT22;24840;47.508;19.376;2023-03-11T03:02:49;7.50;99.90
39095;DHT22;24840;47.508;19.376;2023-03-11T03:05:17;7.30;99.90
39095;DHT22;24840;47.508;19.376;2023-03-11T03:07:46;7.20;99.90
39095;DHT22;24840;47.508;19.376;2023-03-11T03:10:13;7.10;99.90
39095;DHT22;24840;47.508;19.376;2023-03-11T03:12:39;7.10;99.90
39095;DHT22;24840;47.508;19.376;2023-03-11T03:15:05;7.40;99.90
39095;DHT22;24840;47.508;19.376;2023-03-11T03:17:31;7.30;99.90
39095;DHT22;24840;47.508;19.376;2023-03-11T03:19:57;7.20;99.90
39095;DHT22;24840;47.508;19.376;2023-03-11T03:22:22;7.10;99.90
39095;DHT22;24840;47.508;19.376;2023-03-11T03:24:52;7.10;99.90
39095;DHT22;24840;47.508;19.376;2023-03-11T03:27:18;7.30;99.90
39095;DHT22;24840;47.508;19.376;2023-03-11T03:29:44;7.30;99.90
39095;DHT22;24840;47.508;19.376;2023-03-11T03:32:10;7.40;99.90
39095;DHT22;24840;47.508;19.376;2023-03-11T03:34:35;7.60;99.90
39095;DHT22;24840;47.508;19.376;2023-03-11T03:37:01;7.60;99.90
39095;DHT22;24840;47.508;19.376;2023-03-11T03:39:27;7.70;99.90
39095;DHT22;24840;47.508;19.376;2023-03-11T03:41:52;7.70;99.90
39095;DHT22;24840;47.508;19.376;2023-03-11T03:44:18;7.70;99.90
39095;DHT22;24840;47.508;19.376;2023-03-11T03:46:44;7.80;99.90
39095;DHT22;24840;47.508;19.376;2023-03-11T03:49:09;7.80;99.90
39095;DHT22;24840;47.508;19.376;2023-03-11T03:51:35;7.70;99.90
39095;DHT22;24840;47.508;19.376;2023-03-11T03:54:01;7.70;99.90
39095;DHT22;24840;47.508;19.376;2023-03-11T03:56:27;7.90;99.90
39095;DHT22;24840;47.508;19.376;2023-03-11T03:58:53;7.90;99.90
39095;DHT22;24840;47.508;19.376;2023-03-11T04:01:19;7.90;99.90
39095;DHT22;24840;47.508;19.376;2023-03-11T04:03:44;7.90;99.90
39095;DHT22;24840;47.508;19.376;2023-03-11T04:08:45;7.80;99.90
39095;DHT22;24840;47.508;19.376;2023-03-11T04:11:11;7.70;99.90
39095;DHT22;24840;47.508;19.376;2023-03-11T04:13:37;7.70;99.90
39095;DHT22;24840;47.508;19.376;2023-03-11T04:16:04;7.90;99.90
39095;DHT22;24840;47.508;19.376;2023-03-11T04:18:30;7.90;99.90
39095;DHT22;24840;47.508;19.376;2023-03-11T04:20:56;7.80;99.90
39095;DHT22;24840;47.508;19.376;2023-03-11T04:23:22;7.90;99.90
39095;DHT22;24840;47.508;19.376;2023-03-11T04:25:48;7.90;98.80
39095;DHT22;24840;47.508;19.376;2023-03-11T04:28:13;7.80;98.70
39095;DHT22;24840;47.508;19.376;2023-03-11T04:30:39;7.70;99.90
39095;DHT22;24840;47.508;19.376;2023-03-11T04:33:05;7.60;98.80
39095;DHT22;24840;47.508;19.376;2023-03-11T04:35:31;7.60;97.70
39095;DHT22;24840;47.508;19.376;2023-03-11T04:37:57;7.80;96.40
39095;DHT22;24840;47.508;19.376;2023-03-11T04:40:22;7.60;98.00
39095;DHT22;24840;47.508;19.376;2023-03-11T04:42:48;7.60;97.70
39095;DHT22;24840;47.508;19.376;2023-03-11T04:45:14;7.60;97.00
39095;DHT22;24840;47.508;19.376;2023-03-11T04:47:44;7.50;96.90
39095;DHT22;24840;47.508;19.376;2023-03-11T04:50:11;7.50;97.20
39095;DHT22;24840;47.508;19.376;2023-03-11T04:52:37;7.50;96.40
39095;DHT22;24840;47.508;19.376;2023-03-11T04:55:03;7.30;96.30
39095;DHT22;24840;47.508;19.376;2023-03-11T04:57:28;7.30;95.50
39095;DHT22;24840;47.508;19.376;2023-03-11T04:59:54;7.30;96.10
39095;DHT22;24840;47.508;19.376;2023-03-11T05:02:20;7.30;95.50
39095;DHT22;24840;47.508;19.376;2023-03-11T05:04:45;7.20;97.20
39095;DHT22;24840;47.508;19.376;2023-03-11T05:07:11;7.10;97.20
39095;DHT22;24840;47.508;19.376;2023-03-11T05:09:37;7.00;97.10
39095;DHT22;24840;47.508;19.376;2023-03-11T05:12:04;6.90;98.30
39095;DHT22;24840;47.508;19.376;2023-03-11T05:14:29;7.00;96.80
39095;DHT22;24840;47.508;19.376;2023-03-11T05:16:55;7.00;96.20
39095;DHT22;24840;47.508;19.376;2023-03-11T05:19:21;7.00;98.00
39095;DHT22;24840;47.508;19.376;2023-03-11T05:21:56;6.80;97.80
39095;DHT22;24840;47.508;19.376;2023-03-11T05:24:22;6.90;96.50
39095;DHT22;24840;47.508;19.376;2023-03-11T05:26:50;6.80;97.50
39095;DHT22;24840;47.508;19.376;2023-03-11T05:29:16;6.80;95.30
39095;DHT22;24840;47.508;19.376;2023-03-11T05:31:42;6.80;96.20
39095;DHT22;24840;47.508;19.376;2023-03-11T05:34:08;6.70;96.70
39095;DHT22;24840;47.508;19.376;2023-03-11T05:36:33;6.60;97.50
39095;DHT22;24840;47.508;19.376;2023-03-11T05:38:59;6.60;97.30
39095;DHT22;24840;47.508;19.376;2023-03-11T05:41:25;6.60;97.10
39095;DHT22;24840;47.508;19.376;2023-03-11T05:43:50;6.60;96.40
39095;DHT22;24840;47.508;19.376;2023-03-11T05:46:16;6.60;96.30
39095;DHT22;24840;47.508;19.376;2023-03-11T05:48:42;6.60;97.00
39095;DHT22;24840;47.508;19.376;2023-03-11T05:51:09;6.60;93.70
39095;DHT22;24840;47.508;19.376;2023-03-11T05:53:36;6.60;95.40
39095;DHT22;24840;47.508;19.376;2023-03-11T05:56:03;6.60;95.60
39095;DHT22;24840;47.508;19.376;2023-03-11T05:58:30;6.50;94.40
39095;DHT22;24840;47.508;19.376;2023-03-11T06:00:56;6.50;93.20
39095;DHT22;24840;47.508;19.376;2023-03-11T06:03:23;6.40;91.30
39095;DHT22;24840;47.508;19.376;2023-03-11T06:05:49;6.20;91.10
39095;DHT22;24840;47.508;19.376;2023-03-11T06:08:16;6.20;92.60
39095;DHT22;24840;47.508;19.376;2023-03-11T06:10:42;6.20;90.70
39095;DHT22;24840;47.508;19.376;2023-03-11T06:13:09;6.20;91.90
39095;DHT22;24840;47.508;19.376;2023-03-11T06:15:35;6.20;92.20
39095;DHT22;24840;47.508;19.376;2023-03-11T06:18:01;6.20;91.20
39095;DHT22;24840;47.508;19.376;2023-03-11T06:20:28;6.20;92.30
39095;DHT22;24840;47.508;19.376;2023-03-11T06:22:53;6.20;92.90
39095;DHT22;24840;47.508;19.376;2023-03-11T06:25:19;6.10;90.60
39095;DHT22;24840;47.508;19.376;2023-03-11T06:27:49;6.10;92.00
39095;DHT22;24840;47.508;19.376;2023-03-11T06:30:16;6.10;91.40
39095;DHT22;24840;47.508;19.376;2023-03-11T06:32:43;6.10;92.30
39095;DHT22;24840;47.508;19.376;2023-03-11T06:35:10;6.10;90.60
39095;DHT22;24840;47.508;19.376;2023-03-11T06:37:36;6.00;90.40
39095;DHT22;24840;47.508;19.376;2023-03-11T06:40:03;6.00;91.10
39095;DHT22;24840;47.508;19.376;2023-03-11T06:42:29;5.90;92.60
39095;DHT22;24840;47.508;19.376;2023-03-11T06:44:55;5.90;91.90
39095;DHT22;24840;47.508;19.376;2023-03-11T06:47:21;6.00;91.20
39095;DHT22;24840;47.508;19.376;2023-03-11T06:49:47;6.00;91.10
39095;DHT22;24840;47.508;19.376;2023-03-11T06:52:14;6.00;90.00
39095;DHT22;24840;47.508;19.376;2023-03-11T06:54:40;5.90;90.10
39095;DHT22;24840;47.508;19.376;2023-03-11T06:57:07;5.90;90.20
39095;DHT22;24840;47.508;19.376;2023-03-11T06:59:33;6.00;91.00
39095;DHT22;24840;47.508;19.376;2023-03-11T07:01:59;6.00;90.80
39095;DHT22;24840;47.508;19.376;2023-03-11T07:04:24;6.20;91.30
39095;DHT22;24840;47.508;19.376;2023-03-11T07:06:50;6.20;87.30
39095;DHT22;24840;47.508;19.376;2023-03-11T07:09:16;6.10;90.80
39095;DHT22;24840;47.508;19.376;2023-03-11T07:11:42;6.10;88.40
39095;DHT22;24840;47.508;19.376;2023-03-11T07:14:08;6.50;88.70
39095;DHT22;24840;47.508;19.376;2023-03-11T07:16:34;6.70;85.20
39095;DHT22;24840;47.508;19.376;2023-03-11T07:19:00;6.70;89.30
39095;DHT22;24840;47.508;19.376;2023-03-11T07:21:28;6.50;88.40
39095;DHT22;24840;47.508;19.376;2023-03-11T07:23:56;6.60;88.50
39095;DHT22;24840;47.508;19.376;2023-03-11T07:26:22;6.60;87.90
39095;DHT22;24840;47.508;19.376;2023-03-11T07:28:48;6.50;85.10
39095;DHT22;24840;47.508;19.376;2023-03-11T07:31:19;6.60;88.10
39095;DHT22;24840;47.508;19.376;2023-03-11T07:33:46;6.80;89.50
39095;DHT22;24840;47.508;19.376;2023-03-11T07:36:19;6.80;90.40
39095;DHT22;24840;47.508;19.376;2023-03-11T07:38:46;6.70;89.90
39095;DHT22;24840;47.508;19.376;2023-03-11T07:41:13;6.60;84.60
39095;DHT22;24840;47.508;19.376;2023-03-11T07:43:42;6.50;89.30
39095;DHT22;24840;47.508;19.376;2023-03-11T07:46:14;6.50;88.40
39095;DHT22;24840;47.508;19.376;2023-03-11T07:48:41;6.40;84.60
39095;DHT22;24840;47.508;19.376;2023-03-11T07:51:28;6.40;91.20
39095;DHT22;24840;47.508;19.376;2023-03-11T07:53:55;6.30;88.90
39095;DHT22;24840;47.508;19.376;2023-03-11T07:56:25;6.30;90.20
39095;DHT22;24840;47.508;19.376;2023-03-11T07:58:52;6.20;89.60
39095;DHT22;24840;47.508;19.376;2023-03-11T08:01:21;6.30;91.50
39095;DHT22;24840;47.508;19.376;2023-03-11T08:03:49;6.10;88.80
39095;DHT22;24840;47.508;19.376;2023-03-11T08:06:20;6.20;90.00
39095;DHT22;24840;47.508;19.376;2023-03-11T08:08:47;6.10;89.00
39095;DHT22;24840;47.508;19.376;2023-03-11T08:11:15;6.10;90.00
39095;DHT22;24840;47.508;19.376;2023-03-11T08:13:42;6.10;84.70
39095;DHT22;24840;47.508;19.376;2023-03-11T08:16:10;6.10;86.20
39095;DHT22;24840;47.508;19.376;2023-03-11T08:18:36;6.20;86.70
39095;DHT22;24840;47.508;19.376;2023-03-11T08:21:06;6.20;87.70
39095;DHT22;24840;47.508;19.376;2023-03-11T08:23:33;6.30;88.70
39095;DHT22;24840;47.508;19.376;2023-03-11T08:26:06;6.20;84.20
39095;DHT22;24840;47.508;19.376;2023-03-11T08:28:32;6.10;84.90
39095;DHT22;24840;47.508;19.376;2023-03-11T08:30:58;6.80;88.10
39095;DHT22;24840;47.508;19.376;2023-03-11T08:33:24;7.60;87.10
39095;DHT22;24840;47.508;19.376;2023-03-11T08:35:50;8.20;84.00
39095;DHT22;24840;47.508;19.376;2023-03-11T08:38:16;8.70;83.90
39095;DHT22;24840;47.508;19.376;2023-03-11T08:40:41;8.10;86.20
39095;DHT22;24840;47.508;19.376;2023-03-11T08:43:09;8.20;82.10
39095;DHT22;24840;47.508;19.376;2023-03-11T08:45:38;7.60;81.60
39095;DHT22;24840;47.508;19.376;2023-03-11T08:48:04;7.20;81.30
39095;DHT22;24840;47.508;19.376;2023-03-11T08:50:30;7.30;85.10
39095;DHT22;24840;47.508;19.376;2023-03-11T08:52:56;8.00;85.80
39095;DHT22;24840;47.508;19.376;2023-03-11T08:55:24;8.80;84.50
39095;DHT22;24840;47.508;19.376;2023-03-11T08:57:52;8.80;80.90
39095;DHT22;24840;47.508;19.376;2023-03-11T09:00:19;8.70;80.00
39095;DHT22;24840;47.508;19.376;2023-03-11T09:02:44;9.40;78.90
39095;DHT22;24840;47.508;19.376;2023-03-11T09:05:10;9.40;78.40
39095;DHT22;24840;47.508;19.376;2023-03-11T09:07:36;9.50;78.10
39095;DHT22;24840;47.508;19.376;2023-03-11T09:10:02;9.00;75.40
39095;DHT22;24840;47.508;19.376;2023-03-11T09:12:28;8.50;77.60
39095;DHT22;24840;47.508;19.376;2023-03-11T09:14:54;9.20;80.80
39095;DHT22;24840;47.508;19.376;2023-03-11T09:17:21;10.00;80.10
39095;DHT22;24840;47.508;19.376;2023-03-11T09:19:47;9.30;79.30
39095;DHT22;24840;47.508;19.376;2023-03-11T09:22:13;8.50;78.40
39095;DHT22;24840;47.508;19.376;2023-03-11T09:24:38;8.10;79.20
39095;DHT22;24840;47.508;19.376;2023-03-11T09:27:04;8.40;80.00
39095;DHT22;24840;47.508;19.376;2023-03-11T09:29:30;9.20;76.70
39095;DHT22;24840;47.508;19.376;2023-03-11T09:31:56;10.90;80.80
39095;DHT22;24840;47.508;19.376;2023-03-11T09:34:22;11.30;77.40
39095;DHT22;24840;47.508;19.376;2023-03-11T09:36:48;11.00;73.80
39095;DHT22;24840;47.508;19.376;2023-03-11T09:39:13;10.40;74.70
39095;DHT22;24840;47.508;19.376;2023-03-11T09:41:51;9.20;74.60
39095;DHT22;24840;47.508;19.376;2023-03-11T09:53:09;9.40;77.90
39095;DHT22;24840;47.508;19.376;2023-03-11T09:59:00;9.50;76.10
39095;DHT22;24840;47.508;19.376;2023-03-11T10:01:31;9.80;76.70
39095;DHT22;24840;47.508;19.376;2023-03-11T10:04:07;10.10;79.40
39095;DHT22;24840;47.508;19.376;2023-03-11T10:06:35;10.60;77.20
39095;DHT22;24840;47.508;19.376;2023-03-11T10:19:56;8.30;82.00
39095;DHT22;24840;47.508;19.376;2023-03-11T10:22:26;7.70;81.40
39095;DHT22;24840;47.508;19.376;2023-03-11T10:25:17;7.90;84.80
39095;DHT22;24840;47.508;19.376;2023-03-11T10:27:59;8.00;81.70
39095;DHT22;24840;47.508;19.376;2023-03-11T10:31:16;7.80;83.80
39095;DHT22;24840;47.508;19.376;2023-03-11T10:36:13;7.10;80.50
39095;DHT22;24840;47.508;19.376;2023-03-11T10:38:45;6.80;81.70
39095;DHT22;24840;47.508;19.376;2023-03-11T10:44:05;7.00;83.50
39095;DHT22;24840;47.508;19.376;2023-03-11T10:46:31;7.00;85.30
39095;DHT22;24840;47.508;19.376;2023-03-11T10:48:57;6.70;83.00
39095;DHT22;24840;47.508;19.376;2023-03-11T10:51:26;6.60;84.00
39095;DHT22;24840;47.508;19.376;2023-03-11T10:53:58;6.40;82.90
39095;DHT22;24840;47.508;19.376;2023-03-11T10:56:35;6.30;83.00
39095;DHT22;24840;47.508;19.376;2023-03-11T10:59:04;6.40;85.40
39095;DHT22;24840;47.508;19.376;2023-03-11T11:01:31;6.40;85.70
39095;DHT22;24840;47.508;19.376;2023-03-11T11:03:59;6.40;85.50
39095;DHT22;24840;47.508;19.376;2023-03-11T11:06:33;6.40;84.20
39095;DHT22;24840;47.508;19.376;2023-03-11T11:09:16;6.30;85.10
39095;DHT22;24840;47.508;19.376;2023-03-11T11:11:58;6.30;85.20
39095;DHT22;24840;47.508;19.376;2023-03-11T11:14:24;6.20;85.20
39095;DHT22;24840;47.508;19.376;2023-03-11T11:16:51;6.20;88.10
39095;DHT22;24840;47.508;19.376;2023-03-11T11:19:17;6.30;86.40
39095;DHT22;24840;47.508;19.376;2023-03-11T11:21:48;6.40;86.70
39095;DHT22;24840;47.508;19.376;2023-03-11T11:27:15;7.40;85.20
39095;DHT22;24840;47.508;19.376;2023-03-11T11:29:42;7.50;80.80
39095;DHT22;24840;47.508;19.376;2023-03-11T11:34:40;8.30;79.90
39095;DHT22;24840;47.508;19.376;2023-03-11T11:37:10;8.50;80.20
39095;DHT22;24840;47.508;19.376;2023-03-11T11:39:49;8.40;80.20
39095;DHT22;24840;47.508;19.376;2023-03-11T11:42:18;8.30;84.20
39095;DHT22;24840;47.508;19.376;2023-03-11T11:44:47;7.60;81.70
39095;DHT22;24840;47.508;19.376;2023-03-11T11:47:16;7.30;81.00
39095;DHT22;24840;47.508;19.376;2023-03-11T11:49:49;7.10;81.40
39095;DHT22;24840;47.508;19.376;2023-03-11T11:52:23;7.40;85.20
39095;DHT22;24840;47.508;19.376;2023-03-11T11:55:03;7.40;83.90
39095;DHT22;24840;47.508;19.376;2023-03-11T11:57:29;7.60;85.60
39095;DHT22;24840;47.508;19.376;2023-03-11T11:59:55;7.70;84.20
39095;DHT22;24840;47.508;19.376;2023-03-11T12:05:22;7.20;82.10
39095;DHT22;24840;47.508;19.376;2023-03-11T12:13:29;8.00;80.30
39095;DHT22;24840;47.508;19.376;2023-03-11T12:16:28;7.60;80.10
39095;DHT22;24840;47.508;19.376;2023-03-11T12:27:40;7.60;83.70
39095;DHT22;24840;47.508;19.376;2023-03-11T12:30:17;7.70;81.30
39095;DHT22;24840;47.508;19.376;2023-03-11T12:33:33;8.00;80.30
39095;DHT22;24840;47.508;19.376;2023-03-11T12:35:47;7.90;80.00
39095;DHT22;24840;47.508;19.376;2023-03-11T12:46:07;10.20;74.70
39095;DHT22;24840;47.508;19.376;2023-03-11T12:53:55;11.40;72.30
39095;DHT22;24840;47.508;19.376;2023-03-11T13:07:50;10.50;73.80
39095;DHT22;24840;47.508;19.376;2023-03-11T13:15:54;11.10;75.40
39095;DHT22;24840;47.508;19.376;2023-03-11T13:18:24;11.40;73.10
39095;DHT22;24840;47.508;19.376;2023-03-11T13:20:58;11.20;72.30
39095;DHT22;24840;47.508;19.376;2023-03-11T13:28:36;10.30;72.70
39095;DHT22;24840;47.508;19.376;2023-03-11T13:31:28;9.80;73.00
39095;DHT22;24840;47.508;19.376;2023-03-11T13:37:20;8.50;72.80
39095;DHT22;24840;47.508;19.376;2023-03-11T13:42:39;8.60;77.10
39095;DHT22;24840;47.508;19.376;2023-03-11T13:45:33;8.30;77.50
39095;DHT22;24840;47.508;19.376;2023-03-11T13:48:15;8.00;77.10
39095;DHT22;24840;47.508;19.376;2023-03-11T13:50:49;7.80;78.00
39095;DHT22;24840;47.508;19.376;2023-03-11T13:53:20;7.90;77.40
39095;DHT22;24840;47.508;19.376;2023-03-11T13:55:47;7.90;78.60
39095;DHT22;24840;47.508;19.376;2023-03-11T13:58:17;8.00;76.90
39095;DHT22;24840;47.508;19.376;2023-03-11T14:00:53;8.00;78.90
39095;DHT22;24840;47.508;19.376;2023-03-11T14:03:19;8.30;77.60
39095;DHT22;24840;47.508;19.376;2023-03-11T14:06:02;8.00;76.90
39095;DHT22;24840;47.508;19.376;2023-03-11T14:08:30;7.60;78.00
39095;DHT22;24840;47.508;19.376;2023-03-11T14:11:12;7.60;78.20
39095;DHT22;24840;47.508;19.376;2023-03-11T14:13:43;7.50;79.90
39095;DHT22;24840;47.508;19.376;2023-03-11T14:18:45;7.60;77.40
39095;DHT22;24840;47.508;19.376;2023-03-11T14:21:20;7.20;78.10
39095;DHT22;24840;47.508;19.376;2023-03-11T14:23:48;7.00;79.20
39095;DHT22;24840;47.508;19.376;2023-03-11T14:26:27;7.00;80.50
39095;DHT22;24840;47.508;19.376;2023-03-11T14:28:59;7.20;78.70
39095;DHT22;24840;47.508;19.376;2023-03-11T14:34:19;7.20;80.10
39095;DHT22;24840;47.508;19.376;2023-03-11T14:36:59;7.00;80.60
39095;DHT22;24840;47.508;19.376;2023-03-11T14:39:27;7.10;80.10
39095;DHT22;24840;47.508;19.376;2023-03-11T14:50:31;6.80;79.00
39095;DHT22;24840;47.508;19.376;2023-03-11T14:53:40;7.20;79.20
39095;DHT22;24840;47.508;19.376;2023-03-11T14:56:01;8.20;77.00
39095;DHT22;24840;47.508;19.376;2023-03-11T15:01:34;7.30;76.40
39095;DHT22;24840;47.508;19.376;2023-03-11T15:04:25;6.80;77.90
39095;DHT22;24840;47.508;19.376;2023-03-11T15:06:57;6.80;79.80
39095;DHT22;24840;47.508;19.376;2023-03-11T15:09:23;6.80;80.10
39095;DHT22;24840;47.508;19.376;2023-03-11T15:11:57;6.70;78.00
39095;DHT22;24840;47.508;19.376;2023-03-11T15:14:32;6.40;78.50
39095;DHT22;24840;47.508;19.376;2023-03-11T15:17:28;6.40;80.00
39095;DHT22;24840;47.508;19.376;2023-03-11T15:19:57;6.40;79.90
39095;DHT22;24840;47.508;19.376;2023-03-11T15:24:55;6.50;81.00
39095;DHT22;24840;47.508;19.376;2023-03-11T15:27:32;6.30;81.70
39095;DHT22;24840;47.508;19.376;2023-03-11T15:30:00;6.30;79.50
39095;DHT22;24840;47.508;19.376;2023-03-11T15:32:36;6.50;82.00
39095;DHT22;24840;47.508;19.376;2023-03-11T15:37:38;6.50;82.90
39095;DHT22;24840;47.508;19.376;2023-03-11T15:42:46;6.30;81.60
39095;DHT22;24840;47.508;19.376;2023-03-11T15:45:18;6.20;83.00
39095;DHT22;24840;47.508;19.376;2023-03-11T15:47:45;6.00;81.00
39095;DHT22;24840;47.508;19.376;2023-03-11T15:50:23;6.00;83.90
39095;DHT22;24840;47.508;19.376;2023-03-11T15:52:53;5.90;85.00
39095;DHT22;24840;47.508;19.376;2023-03-11T15:55:20;5.90;84.70
39095;DHT22;24840;47.508;19.376;2023-03-11T15:57:47;5.80;83.60
39095;DHT22;24840;47.508;19.376;2023-03-11T16:00:20;5.80;82.80
39095;DHT22;24840;47.508;19.376;2023-03-11T16:02:47;5.70;82.80
39095;DHT22;24840;47.508;19.376;2023-03-11T16:05:17;5.60;83.90
39095;DHT22;24840;47.508;19.376;2023-03-11T16:07:42;5.60;82.90
39095;DHT22;24840;47.508;19.376;2023-03-11T16:10:09;5.50;82.70
39095;DHT22;24840;47.508;19.376;2023-03-11T16:12:36;5.50;83.50
39095;DHT22;24840;47.508;19.376;2023-03-11T16:15:02;5.50;84.30
39095;DHT22;24840;47.508;19.376;2023-03-11T16:17:28;5.50;82.50
39095;DHT22;24840;47.508;19.376;2023-03-11T16:19:54;5.50;83.60
39095;DHT22;24840;47.508;19.376;2023-03-11T16:22:33;5.40;82.50
39095;DHT22;24840;47.508;19.376;2023-03-11T16:25:01;5.40;82.40
39095;DHT22;24840;47.508;19.376;2023-03-11T16:27:27;5.40;82.40
39095;DHT22;24840;47.508;19.376;2023-03-11T16:29:53;5.30;81.80
39095;DHT22;24840;47.508;19.376;2023-03-11T16:32:19;5.20;83.30
39095;DHT22;24840;47.508;19.376;2023-03-11T16:34:45;5.20;82.20
39095;DHT22;24840;47.508;19.376;2023-03-11T16:37:14;5.20;81.70
39095;DHT22;24840;47.508;19.376;2023-03-11T16:39:40;5.10;82.90
39095;DHT22;24840;47.508;19.376;2023-03-11T16:42:07;5.10;82.70
39095;DHT22;24840;47.508;19.376;2023-03-11T16:44:33;5.10;82.80
39095;DHT22;24840;47.508;19.376;2023-03-11T16:46:59;5.00;82.90
39095;DHT22;24840;47.508;19.376;2023-03-11T16:49:26;5.00;84.30
39095;DHT22;24840;47.508;19.376;2023-03-11T16:51:53;5.00;83.10
39095;DHT22;24840;47.508;19.376;2023-03-11T16:54:19;5.00;83.10
39095;DHT22;24840;47.508;19.376;2023-03-11T16:56:44;5.00;80.40
39095;DHT22;24840;47.508;19.376;2023-03-11T16:59:10;5.00;80.70
39095;DHT22;24840;47.508;19.376;2023-03-11T17:01:36;5.00;82.40
39095;DHT22;24840;47.508;19.376;2023-03-11T17:04:06;4.90;81.60
39095;DHT22;24840;47.508;19.376;2023-03-11T17:06:32;4.90;82.50
39095;DHT22;24840;47.508;19.376;2023-03-11T17:08:59;4.90;81.70
39095;DHT22;24840;47.508;19.376;2023-03-11T17:11:24;4.90;81.70
39095;DHT22;24840;47.508;19.376;2023-03-11T17:13:54;4.90;82.50
39095;DHT22;24840;47.508;19.376;2023-03-11T17:16:20;4.80;83.00
39095;DHT22;24840;47.508;19.376;2023-03-11T17:18:46;4.80;82.30
39095;DHT22;24840;47.508;19.376;2023-03-11T17:21:13;4.80;81.10
39095;DHT22;24840;47.508;19.376;2023-03-11T17:23:40;4.70;82.30
39095;DHT22;24840;47.508;19.376;2023-03-11T17:26:11;4.60;83.00
39095;DHT22;24840;47.508;19.376;2023-03-11T17:28:37;4.50;82.40
39095;DHT22;24840;47.508;19.376;2023-03-11T17:31:05;4.40;83.80
39095;DHT22;24840;47.508;19.376;2023-03-11T17:33:34;4.40;82.70
39095;DHT22;24840;47.508;19.376;2023-03-11T17:36:02;4.30;83.90
39095;DHT22;24840;47.508;19.376;2023-03-11T17:38:28;4.30;83.30
39095;DHT22;24840;47.508;19.376;2023-03-11T17:40:54;4.20;84.00